Time;durP1;ratioP1;P1;durP2;ratioP2;P2;SDS_P1;SDS_P2;PMS_P1;PMS_P2;Temp;Humidity;BMP_temperature;BMP_pressure;BME280_temperature;BME280_humidity;BME280_pressure;Samples;Min_cycle;Max_cycle;Signal;HPM_P1;HPM_P2
2021/09/03 00:00:20;;;;;;;0.60;0.60;;;16.80;99.90;;;;;;4987934;28;20266;-84
2021/09/03 00:02:46;;;;;;;0.40;0.40;;;16.70;99.90;;;;;;4974244;28;20200;-84
2021/09/03 00:05:18;;;;;;;1.47;0.77;;;16.70;99.90;;;;;;4964815;28;20187;-84
2021/09/03 00:07:43;;;;;;;0.40;0.40;;;16.80;99.90;;;;;;4989481;28;20207;-84
2021/09/03 00:10:12;;;;;;;0.30;0.30;;;16.80;99.90;;;;;;4976772;28;20187;-85
2021/09/03 00:12:39;;;;;;;2.10;0.53;;;16.70;99.90;;;;;;4993508;28;20242;-85
2021/09/03 00:15:07;;;;;;;1.20;0.57;;;16.70;99.90;;;;;;4977291;28;20183;-84
2021/09/03 00:17:33;;;;;;;2.77;0.57;;;16.60;99.90;;;;;;4993708;28;20306;-84
2021/09/03 00:19:58;;;;;;;0.40;0.40;;;16.60;99.90;;;;;;4976559;28;20274;-84
2021/09/03 00:22:24;;;;;;;2.77;0.90;;;16.60;99.90;;;;;;4994376;28;20257;-84
2021/09/03 00:24:50;;;;;;;1.50;0.50;;;16.50;99.90;;;;;;4977044;28;20658;-85
2021/09/03 00:27:15;;;;;;;0.73;0.63;;;16.50;99.90;;;;;;4976655;28;20214;-84
2021/09/03 00:29:41;;;;;;;0.57;0.57;;;16.50;99.90;;;;;;4973768;28;20190;-84
2021/09/03 00:32:07;;;;;;;0.43;0.40;;;16.40;99.90;;;;;;4976773;28;20691;-84
2021/09/03 00:34:32;;;;;;;1.30;0.40;;;16.40;99.90;;;;;;4975769;28;20183;-84
2021/09/03 00:36:59;;;;;;;0.73;0.30;;;16.40;99.90;;;;;;4993571;28;20215;-84
2021/09/03 00:39:25;;;;;;;0.43;0.33;;;16.40;99.90;;;;;;4992847;28;20211;-84
2021/09/03 00:41:50;;;;;;;0.47;0.47;;;16.30;99.90;;;;;;4976470;28;20191;-84
2021/09/03 00:44:16;;;;;;;0.53;0.40;;;16.30;99.90;;;;;;4976492;28;20195;-84
2021/09/03 00:46:41;;;;;;;0.50;0.50;;;16.30;99.90;;;;;;4975234;28;20679;-84
2021/09/03 00:49:07;;;;;;;0.33;0.33;;;16.20;99.90;;;;;;4991838;28;20668;-85
2021/09/03 00:51:33;;;;;;;2.27;0.50;;;16.30;99.90;;;;;;4975105;28;20640;-84
2021/09/03 00:53:59;;;;;;;0.80;0.80;;;16.20;99.90;;;;;;4974614;28;20197;-84
2021/09/03 00:56:26;;;;;;;0.53;0.53;;;16.30;99.90;;;;;;4993584;28;20245;-85
2021/09/03 00:58:52;;;;;;;1.17;0.40;;;16.20;99.90;;;;;;4989915;28;20265;-84
2021/09/03 01:01:20;;;;;;;0.37;0.37;;;16.20;99.90;;;;;;4976107;28;20184;-85
2021/09/03 01:03:46;;;;;;;0.63;0.63;;;16.20;99.90;;;;;;4975673;28;20215;-85
2021/09/03 01:06:12;;;;;;;0.37;0.37;;;16.00;99.90;;;;;;4993068;28;20214;-84
2021/09/03 01:08:38;;;;;;;1.63;0.57;;;16.00;99.90;;;;;;4992328;28;20211;-84
2021/09/03 01:11:03;;;;;;;0.23;0.23;;;15.90;99.90;;;;;;4975983;28;20187;-84
2021/09/03 01:13:29;;;;;;;0.70;0.23;;;15.90;99.90;;;;;;4967567;28;20195;-85
2021/09/03 01:15:54;;;;;;;1.63;0.63;;;15.90;99.90;;;;;;4990376;28;20187;-85
2021/09/03 01:18:20;;;;;;;0.90;0.63;;;15.90;99.90;;;;;;4975290;28;20218;-84
2021/09/03 01:20:46;;;;;;;2.03;0.60;;;15.80;99.90;;;;;;4981942;28;20194;-84
2021/09/03 01:23:13;;;;;;;0.97;0.67;;;15.90;99.90;;;;;;4975520;28;20678;-84
2021/09/03 01:25:40;;;;;;;0.43;0.43;;;15.90;99.90;;;;;;4971747;28;20180;-84
2021/09/03 01:28:06;;;;;;;0.30;0.30;;;15.90;99.90;;;;;;4977700;28;20210;-84
2021/09/03 01:30:32;;;;;;;0.93;0.40;;;15.80;99.90;;;;;;4977033;28;20191;-85
2021/09/03 01:32:58;;;;;;;0.43;0.43;;;15.90;99.90;;;;;;4974792;28;20183;-84
2021/09/03 01:35:24;;;;;;;0.50;0.30;;;15.90;99.90;;;;;;4974829;28;20197;-84
2021/09/03 01:37:49;;;;;;;1.10;1.00;;;15.80;99.90;;;;;;4975160;28;20219;-83
2021/09/03 01:40:15;;;;;;;0.70;0.60;;;15.80;99.90;;;;;;4975370;28;20234;-86
2021/09/03 01:42:41;;;;;;;0.40;0.40;;;15.70;99.90;;;;;;4975700;28;20205;-86
2021/09/03 01:45:07;;;;;;;0.40;0.40;;;15.70;99.90;;;;;;4991569;28;20658;-86
2021/09/03 01:47:33;;;;;;;0.37;0.37;;;15.60;99.90;;;;;;4955948;28;20230;-86
2021/09/03 01:49:59;;;;;;;0.30;0.30;;;15.60;99.90;;;;;;4971077;28;20663;-86
2021/09/03 01:52:25;;;;;;;0.53;0.53;;;15.60;99.90;;;;;;4971784;28;20186;-86
2021/09/03 01:54:50;;;;;;;0.60;0.50;;;15.50;99.90;;;;;;4991689;28;20193;-86
2021/09/03 01:57:16;;;;;;;0.47;0.43;;;15.50;99.90;;;;;;4974690;28;20269;-86
2021/09/03 01:59:41;;;;;;;0.63;0.57;;;15.40;99.90;;;;;;4975683;28;20217;-87
2021/09/03 02:02:07;;;;;;;1.03;1.03;;;15.20;99.90;;;;;;4992674;28;20334;-86
2021/09/03 02:04:33;;;;;;;0.50;0.30;;;15.10;99.90;;;;;;4974244;28;20193;-86
2021/09/03 02:06:58;;;;;;;0.77;0.43;;;15.10;99.90;;;;;;4975061;28;20206;-86
2021/09/03 02:09:24;;;;;;;0.30;0.30;;;14.90;99.90;;;;;;4974928;28;20213;-86
2021/09/03 02:11:50;;;;;;;0.40;0.40;;;15.00;99.90;;;;;;4975359;28;20557;-86
2021/09/03 02:14:16;;;;;;;0.80;0.77;;;15.10;99.90;;;;;;4991503;28;20182;-87
2021/09/03 02:16:42;;;;;;;3.63;0.97;;;15.10;99.90;;;;;;4979030;28;20215;-86
2021/09/03 02:19:08;;;;;;;0.50;0.50;;;15.00;99.90;;;;;;4978625;28;20239;-86
2021/09/03 02:21:33;;;;;;;0.43;0.43;;;15.10;99.90;;;;;;4979287;28;20191;-86
2021/09/03 02:23:59;;;;;;;0.67;0.57;;;15.00;99.90;;;;;;4978024;28;20222;-86
2021/09/03 02:26:24;;;;;;;0.20;0.20;;;14.90;99.90;;;;;;4976749;28;20193;-86
2021/09/03 02:28:50;;;;;;;0.57;0.57;;;15.00;99.90;;;;;;4978958;28;20271;-86
2021/09/03 02:31:16;;;;;;;0.30;0.30;;;15.00;99.90;;;;;;4978739;28;20194;-87
2021/09/03 02:33:41;;;;;;;0.93;0.93;;;14.90;99.90;;;;;;4996026;28;20594;-86
2021/09/03 02:36:09;;;;;;;0.30;0.30;;;14.90;99.90;;;;;;4995875;28;20184;-86
2021/09/03 02:38:35;;;;;;;1.13;0.57;;;15.00;99.90;;;;;;4987621;23;20239;-82
2021/09/03 02:41:01;;;;;;;0.70;0.70;;;14.80;99.90;;;;;;4975934;28;20638;-83
2021/09/03 02:43:26;;;;;;;0.60;0.60;;;14.90;99.90;;;;;;4976853;28;20627;-83
2021/09/03 02:45:52;;;;;;;0.60;0.40;;;14.80;99.90;;;;;;4991109;28;20228;-83
2021/09/03 02:48:18;;;;;;;0.67;0.67;;;14.80;99.90;;;;;;4976922;28;20260;-83
2021/09/03 02:50:44;;;;;;;2.93;0.50;;;14.80;99.90;;;;;;4976131;28;20181;-82
2021/09/03 02:53:09;;;;;;;0.90;0.87;;;14.80;99.90;;;;;;4975395;28;20681;-83
2021/09/03 02:55:35;;;;;;;0.70;0.70;;;14.80;99.90;;;;;;4974786;28;20188;-82
2021/09/03 02:58:01;;;;;;;0.57;0.57;;;14.70;99.90;;;;;;4975476;28;20243;-83
2021/09/03 03:00:27;;;;;;;0.63;0.50;;;14.70;99.90;;;;;;4975910;28;20633;-83
2021/09/03 03:02:53;;;;;;;1.13;0.97;;;14.60;99.90;;;;;;4962361;28;20183;-82
2021/09/03 03:05:20;;;;;;;0.23;0.23;;;14.60;99.90;;;;;;4973034;28;20663;-82
2021/09/03 03:07:45;;;;;;;0.50;0.47;;;14.60;99.90;;;;;;4974885;28;20220;-85
2021/09/03 03:10:11;;;;;;;0.20;0.20;;;14.50;99.90;;;;;;4974203;28;20732;-84
2021/09/03 03:12:37;;;;;;;2.17;1.03;;;14.60;99.90;;;;;;4974410;28;20644;-82
2021/09/03 03:15:04;;;;;;;0.57;0.43;;;14.60;99.90;;;;;;4973998;28;20618;-80
2021/09/03 03:17:30;;;;;;;0.73;0.73;;;14.60;99.90;;;;;;4973934;28;20228;-82
2021/09/03 03:19:55;;;;;;;0.37;0.30;;;14.60;99.90;;;;;;4974511;28;20712;-82
2021/09/03 03:22:21;;;;;;;1.13;0.53;;;14.60;99.90;;;;;;4974613;28;20682;-83
2021/09/03 03:24:47;;;;;;;0.37;0.37;;;14.50;99.90;;;;;;4974444;28;20635;-82
2021/09/03 03:27:12;;;;;;;0.47;0.47;;;14.50;99.90;;;;;;4970775;28;20272;-81
2021/09/03 03:29:38;;;;;;;0.90;0.90;;;14.50;99.90;;;;;;4974544;28;20231;-82
2021/09/03 03:32:04;;;;;;;1.20;0.57;;;14.50;99.90;;;;;;4973533;28;20620;-83
2021/09/03 03:34:29;;;;;;;1.03;0.60;;;14.50;99.90;;;;;;4974805;28;20273;-82
2021/09/03 03:36:55;;;;;;;0.93;0.90;;;14.60;99.90;;;;;;4959273;28;20222;-82
2021/09/03 03:39:20;;;;;;;0.53;0.53;;;14.40;99.90;;;;;;4959799;28;20216;-82
2021/09/03 03:41:46;;;;;;;0.50;0.50;;;14.20;99.90;;;;;;4968828;28;20287;-84
2021/09/03 03:44:12;;;;;;;0.60;0.60;;;14.10;99.90;;;;;;4972417;28;20228;-83
2021/09/03 03:46:37;;;;;;;0.40;0.30;;;13.90;99.90;;;;;;4969542;28;20193;-80
2021/09/03 03:49:03;;;;;;;0.67;0.40;;;13.90;99.90;;;;;;4973466;28;20223;-82
2021/09/03 03:51:28;;;;;;;0.30;0.30;;;13.90;99.90;;;;;;4973564;28;20247;-83
2021/09/03 03:53:54;;;;;;;0.20;0.20;;;14.00;99.90;;;;;;4964392;28;20194;-83
2021/09/03 03:56:19;;;;;;;0.40;0.40;;;14.00;99.90;;;;;;4973201;28;20672;-83
2021/09/03 03:58:45;;;;;;;0.50;0.50;;;14.00;99.90;;;;;;4969465;28;20363;-82
2021/09/03 04:01:11;;;;;;;0.57;0.43;;;14.10;99.90;;;;;;4973077;28;20188;-83
2021/09/03 04:03:37;;;;;;;0.53;0.50;;;14.20;99.90;;;;;;4971663;28;20185;-83
2021/09/03 04:06:02;;;;;;;0.60;0.60;;;14.10;99.90;;;;;;4972805;28;20207;-83
2021/09/03 04:08:28;;;;;;;1.40;0.30;;;14.20;99.90;;;;;;4970533;28;21951;-82
2021/09/03 04:10:53;;;;;;;1.43;0.60;;;14.20;99.90;;;;;;4966355;28;20569;-82
2021/09/03 04:13:20;;;;;;;0.67;0.50;;;14.20;99.90;;;;;;4972054;28;20634;-81
2021/09/03 04:15:45;;;;;;;0.20;0.20;;;13.90;99.90;;;;;;4972249;28;20198;-82
2021/09/03 04:18:11;;;;;;;2.37;0.43;;;13.80;99.90;;;;;;4974091;28;20218;-84
2021/09/03 04:20:37;;;;;;;0.33;0.33;;;13.80;99.90;;;;;;4972467;28;20243;-83
2021/09/03 04:23:03;;;;;;;0.43;0.43;;;13.80;99.90;;;;;;4970846;28;20199;-84
2021/09/03 04:25:28;;;;;;;0.37;0.33;;;13.70;99.90;;;;;;4973671;28;20182;-83
2021/09/03 04:27:54;;;;;;;0.20;0.20;;;13.70;99.90;;;;;;4970484;28;20203;-83
2021/09/03 04:30:19;;;;;;;1.00;1.00;;;13.70;99.90;;;;;;4972901;28;20223;-83
2021/09/03 04:32:45;;;;;;;0.40;0.40;;;13.80;99.90;;;;;;4971531;28;20235;-82
2021/09/03 04:35:11;;;;;;;0.30;0.30;;;13.90;99.90;;;;;;4971101;28;20216;-83
2021/09/03 04:37:44;;;;;;;0.77;0.70;;;13.80;99.90;;;;;;4971365;28;20227;-84
2021/09/03 04:40:11;;;;;;;0.27;0.27;;;13.80;99.90;;;;;;4973779;28;20199;-83
2021/09/03 04:42:36;;;;;;;0.57;0.47;;;13.80;99.90;;;;;;4969396;28;20829;-82
2021/09/03 04:45:03;;;;;;;1.63;0.60;;;13.90;99.90;;;;;;4971271;28;20279;-85
2021/09/03 04:47:28;;;;;;;0.40;0.40;;;13.90;99.90;;;;;;4969887;28;20212;-86
2021/09/03 04:49:54;;;;;;;0.53;0.53;;;14.00;99.90;;;;;;4971110;28;20279;-83
2021/09/03 04:52:19;;;;;;;0.70;0.70;;;14.00;99.90;;;;;;4971307;28;20252;-82
2021/09/03 04:54:45;;;;;;;1.17;0.90;;;14.10;99.90;;;;;;4972423;28;20196;-82
2021/09/03 04:57:10;;;;;;;0.40;0.40;;;14.20;99.90;;;;;;4971374;28;20211;-82
2021/09/03 04:59:36;;;;;;;1.27;0.97;;;14.20;99.90;;;;;;4970836;28;20181;-82
2021/09/03 05:02:02;;;;;;;1.40;0.57;;;14.20;99.90;;;;;;4972465;28;20192;-82
2021/09/03 05:04:27;;;;;;;0.27;0.27;;;14.30;99.90;;;;;;4972029;28;20576;-82
2021/09/03 05:06:53;;;;;;;0.60;0.60;;;14.30;99.90;;;;;;4972170;28;20603;-81
2021/09/03 05:09:18;;;;;;;0.33;0.33;;;14.20;99.90;;;;;;4969549;28;20267;-85
2021/09/03 05:11:44;;;;;;;0.30;0.30;;;14.00;99.90;;;;;;4971256;28;20184;-84
2021/09/03 05:14:09;;;;;;;0.40;0.40;;;13.90;99.90;;;;;;4962561;28;20216;-85
2021/09/03 05:16:35;;;;;;;0.60;0.47;;;14.00;99.90;;;;;;4971397;28;20196;-82
2021/09/03 05:19:00;;;;;;;0.30;0.30;;;14.10;99.90;;;;;;4967934;28;20240;-82
2021/09/03 05:21:26;;;;;;;0.30;0.30;;;14.20;99.90;;;;;;4971573;28;20184;-82
2021/09/03 05:23:51;;;;;;;2.20;1.03;;;14.10;99.90;;;;;;4966690;28;20195;-83
2021/09/03 05:26:17;;;;;;;0.30;0.30;;;14.10;99.90;;;;;;4965429;28;20212;-81
2021/09/03 05:28:43;;;;;;;0.70;0.47;;;14.20;99.90;;;;;;4971002;28;20582;-82
2021/09/03 05:31:08;;;;;;;0.63;0.63;;;14.30;99.90;;;;;;4972798;28;20181;-83
2021/09/03 05:33:34;;;;;;;0.30;0.30;;;14.30;99.90;;;;;;4970448;28;20180;-83
2021/09/03 05:35:59;;;;;;;0.60;0.60;;;14.20;99.90;;;;;;4970115;28;20207;-80
2021/09/03 05:38:25;;;;;;;1.70;1.07;;;14.10;99.90;;;;;;4962862;28;20240;-83
2021/09/03 05:40:51;;;;;;;0.97;0.60;;;14.10;99.90;;;;;;4967679;28;20264;-83
2021/09/03 05:43:20;;;;;;;2.47;0.67;;;14.30;99.90;;;;;;4972642;28;20192;-82
2021/09/03 05:45:46;;;;;;;0.40;0.40;;;14.40;99.90;;;;;;4970712;28;20186;-82
2021/09/03 05:48:11;;;;;;;0.90;0.73;;;14.60;99.90;;;;;;4969737;28;20696;-81
2021/09/03 05:50:37;;;;;;;0.40;0.40;;;14.90;99.90;;;;;;4969010;28;20189;-83
2021/09/03 05:53:03;;;;;;;0.60;0.60;;;15.10;99.90;;;;;;4972267;28;20207;-83
2021/09/03 05:55:28;;;;;;;0.67;0.60;;;15.20;99.90;;;;;;4963889;28;20184;-82
2021/09/03 05:57:54;;;;;;;0.40;0.37;;;15.40;99.90;;;;;;4966207;28;20213;-82
2021/09/03 06:00:20;;;;;;;0.60;0.60;;;15.60;99.90;;;;;;4971236;28;20228;-80
2021/09/03 06:02:46;;;;;;;0.70;0.70;;;15.60;99.90;;;;;;4968150;28;20190;-82
2021/09/03 06:05:11;;;;;;;0.50;0.50;;;15.70;99.90;;;;;;4965835;28;20187;-81
2021/09/03 06:07:37;;;;;;;4.53;0.47;;;15.90;99.90;;;;;;4961002;28;20243;-83
2021/09/03 06:10:05;;;;;;;0.40;0.23;;;16.10;99.90;;;;;;4970506;28;20292;-82
2021/09/03 06:12:30;;;;;;;0.30;0.30;;;16.20;99.90;;;;;;4971010;28;20199;-82
2021/09/03 06:14:56;;;;;;;0.87;0.87;;;16.30;99.90;;;;;;4970548;28;20712;-82
2021/09/03 06:17:22;;;;;;;0.80;0.53;;;16.30;99.90;;;;;;4970119;28;20230;-83
2021/09/03 06:19:48;;;;;;;0.43;0.43;;;16.40;99.90;;;;;;4971179;28;20766;-82
2021/09/03 06:22:13;;;;;;;0.77;0.77;;;16.50;99.90;;;;;;4971095;28;20215;-83
2021/09/03 06:24:39;;;;;;;0.63;0.63;;;16.50;99.90;;;;;;4967135;28;20192;-83
2021/09/03 06:27:07;;;;;;;0.63;0.57;;;16.60;99.90;;;;;;4964743;28;20196;-80
2021/09/03 06:29:43;;;;;;;0.70;0.60;;;16.80;99.90;;;;;;4968313;28;20235;-83
2021/09/03 06:32:14;;;;;;;0.80;0.80;;;16.90;99.90;;;;;;4968134;28;20591;-82
2021/09/03 06:34:43;;;;;;;0.57;0.57;;;17.00;99.90;;;;;;4968650;28;20199;-83
2021/09/03 06:37:09;;;;;;;0.40;0.40;;;17.20;99.90;;;;;;4967607;28;20231;-82
2021/09/03 06:39:35;;;;;;;1.87;0.50;;;17.40;99.90;;;;;;4968755;28;20223;-81
2021/09/03 06:42:02;;;;;;;0.60;0.40;;;17.60;99.90;;;;;;4968276;28;20191;-80
2021/09/03 06:44:28;;;;;;;0.47;0.47;;;17.90;99.90;;;;;;4968902;28;20192;-83
2021/09/03 06:46:53;;;;;;;0.33;0.33;;;18.10;99.90;;;;;;4968722;28;20280;-83
2021/09/03 06:49:19;;;;;;;0.60;0.60;;;18.20;99.90;;;;;;4969224;28;20247;-81
2021/09/03 06:51:44;;;;;;;0.20;0.20;;;18.40;99.90;;;;;;4968897;28;20199;-86
2021/09/03 06:54:10;;;;;;;1.20;1.10;;;18.30;99.90;;;;;;4971290;28;20192;-84
2021/09/03 06:56:36;;;;;;;1.23;0.80;;;18.30;99.90;;;;;;4964640;28;20187;-85
2021/09/03 06:59:03;;;;;;;0.70;0.70;;;18.60;99.90;;;;;;4967771;28;20220;-83
2021/09/03 07:01:30;;;;;;;0.93;0.63;;;18.70;99.90;;;;;;4972737;28;20275;-82
2021/09/03 07:03:56;;;;;;;0.93;0.50;;;19.00;99.90;;;;;;4972868;28;20207;-83
2021/09/03 07:06:21;;;;;;;0.80;0.80;;;19.10;99.90;;;;;;4972469;28;20575;-81
2021/09/03 07:08:47;;;;;;;0.73;0.70;;;19.40;99.90;;;;;;4974252;28;20216;-82
2021/09/03 07:11:12;;;;;;;0.97;0.87;;;19.50;99.90;;;;;;4973523;28;20188;-83
2021/09/03 07:13:38;;;;;;;0.43;0.43;;;19.70;99.90;;;;;;4972974;28;20269;-83
2021/09/03 07:16:04;;;;;;;0.20;0.20;;;19.80;99.90;;;;;;4970474;28;20207;-82
2021/09/03 07:18:30;;;;;;;2.23;0.80;;;19.90;99.90;;;;;;4972530;28;20232;-83
2021/09/03 07:20:56;;;;;;;1.90;1.03;;;20.00;99.90;;;;;;4972772;28;20683;-82
2021/09/03 07:23:22;;;;;;;0.20;0.20;;;20.00;99.90;;;;;;4974232;28;20241;-82
2021/09/03 07:25:47;;;;;;;0.80;0.63;;;20.10;99.90;;;;;;4966341;28;20186;-84
2021/09/03 07:28:13;;;;;;;0.60;0.60;;;20.10;99.90;;;;;;4973127;28;20204;-84
2021/09/03 07:30:38;;;;;;;0.90;0.90;;;20.00;99.90;;;;;;4973972;28;20667;-84
2021/09/03 07:33:04;;;;;;;0.60;0.53;;;20.30;99.90;;;;;;4971267;28;20260;-83
2021/09/03 07:35:30;;;;;;;1.80;0.80;;;20.20;99.90;;;;;;4973240;28;20656;-84
2021/09/03 07:37:56;;;;;;;4.23;2.03;;;20.50;99.90;;;;;;4973555;28;20278;-84
2021/09/03 07:40:23;;;;;;;2.20;1.07;;;20.20;99.90;;;;;;4969723;28;20190;-84
2021/09/03 07:42:49;;;;;;;0.83;0.83;;;19.90;99.90;;;;;;4970735;28;20191;-83
2021/09/03 07:45:15;;;;;;;1.10;1.10;;;19.60;99.90;;;;;;4972939;28;20187;-83
2021/09/03 07:47:40;;;;;;;1.70;1.10;;;19.60;99.90;;;;;;4966080;28;20234;-82
2021/09/03 07:50:06;;;;;;;1.07;0.60;;;20.10;99.90;;;;;;4957450;28;20661;-86
2021/09/03 07:52:32;;;;;;;0.83;0.63;;;20.40;99.90;;;;;;4969300;28;20240;-86
2021/09/03 07:54:58;;;;;;;0.83;0.83;;;20.60;99.90;;;;;;4966155;28;20195;-83
2021/09/03 07:57:23;;;;;;;0.40;0.40;;;20.90;99.90;;;;;;4969728;28;20251;-83
2021/09/03 07:59:49;;;;;;;0.60;0.60;;;21.10;99.90;;;;;;4966653;28;20187;-82
2021/09/03 08:02:14;;;;;;;1.90;0.93;;;21.10;99.90;;;;;;4969028;28;20858;-80
2021/09/03 08:04:40;;;;;;;0.77;0.70;;;21.30;99.90;;;;;;4964673;28;20180;-83
2021/09/03 08:07:06;;;;;;;1.43;0.80;;;21.40;99.90;;;;;;4972247;28;20188;-83
2021/09/03 08:09:31;;;;;;;0.70;0.50;;;21.60;99.90;;;;;;4972635;28;20200;-83
2021/09/03 08:11:57;;;;;;;0.73;0.73;;;21.70;99.90;;;;;;4964025;28;20661;-81
2021/09/03 08:14:22;;;;;;;5.30;0.60;;;21.80;99.90;;;;;;4964397;28;20255;-83
2021/09/03 08:16:48;;;;;;;0.67;0.67;;;21.90;99.90;;;;;;4970623;28;20195;-81
2021/09/03 08:19:14;;;;;;;2.10;1.00;;;21.90;99.90;;;;;;4970077;28;20216;-83
2021/09/03 08:21:39;;;;;;;1.47;1.37;;;21.40;99.90;;;;;;4973247;28;20198;-83
2021/09/03 08:24:05;;;;;;;2.53;1.10;;;21.70;99.90;;;;;;4971401;28;20321;-83
2021/09/03 08:26:30;;;;;;;1.10;0.67;;;21.40;99.90;;;;;;4971956;28;20188;-82
2021/09/03 08:28:56;;;;;;;0.77;0.77;;;21.30;99.90;;;;;;4972512;28;20208;-83
2021/09/03 08:31:23;;;;;;;0.77;0.63;;;21.50;99.90;;;;;;4971588;28;20271;-83
2021/09/03 08:33:49;;;;;;;0.80;0.80;;;21.60;99.90;;;;;;4971719;28;20192;-83
2021/09/03 08:36:15;;;;;;;1.57;1.00;;;21.50;99.90;;;;;;4971074;28;20204;-83
2021/09/03 08:38:40;;;;;;;0.70;0.70;;;21.60;99.90;;;;;;4967475;28;20224;-82
2021/09/03 08:41:06;;;;;;;1.10;0.73;;;21.80;99.90;;;;;;4970209;28;20701;-83
2021/09/03 08:43:31;;;;;;;3.77;1.97;;;21.90;99.90;;;;;;4968329;28;20547;-82
2021/09/03 08:45:57;;;;;;;0.87;0.60;;;22.10;99.90;;;;;;4969068;28;20243;-83
2021/09/03 08:48:24;;;;;;;1.00;1.00;;;22.20;99.90;;;;;;4968859;28;20208;-83
2021/09/03 08:50:52;;;;;;;0.50;0.50;;;22.10;99.90;;;;;;4970665;28;20320;-83
2021/09/03 08:53:22;;;;;;;1.27;0.70;;;22.50;99.90;;;;;;4970984;28;20213;-81
2021/09/03 08:55:52;;;;;;;0.83;0.77;;;22.50;99.90;;;;;;4971976;28;20247;-81
2021/09/03 08:58:18;;;;;;;0.93;0.70;;;22.70;99.90;;;;;;4969164;28;20744;-83
2021/09/03 09:00:44;;;;;;;0.93;0.87;;;22.90;99.90;;;;;;4972098;28;20275;-83
2021/09/03 09:03:13;;;;;;;1.13;0.83;;;22.00;99.90;;;;;;4973516;28;20184;-83
2021/09/03 09:05:48;;;;;;;0.80;0.60;;;22.10;99.90;;;;;;4972185;28;20189;-83
2021/09/03 09:08:14;;;;;;;0.73;0.73;;;22.40;99.90;;;;;;4973321;28;20262;-82
2021/09/03 09:10:50;;;;;;;0.60;0.60;;;22.80;99.90;;;;;;4972144;28;20180;-81
2021/09/03 09:13:18;;;;;;;0.97;0.97;;;23.30;99.90;;;;;;4972234;28;20671;-83
2021/09/03 09:16:16;;;;;;;1.77;0.93;;;23.20;99.90;;;;;;4971949;28;20192;-82
2021/09/03 09:18:53;;;;;;;1.63;1.00;;;22.90;99.90;;;;;;4971764;28;20200;-83
2021/09/03 09:21:23;;;;;;;3.00;1.00;;;23.10;99.90;;;;;;4971482;28;20243;-83
2021/09/03 09:24:04;;;;;;;0.77;0.77;;;23.40;99.90;;;;;;4972873;28;20180;-83
2021/09/03 09:26:47;;;;;;;0.70;0.70;;;23.70;99.90;;;;;;4976921;28;20188;-82
2021/09/03 09:29:27;;;;;;;1.40;0.97;;;23.30;99.90;;;;;;4978645;28;20211;-81
2021/09/03 09:31:53;;;;;;;0.80;0.50;;;23.40;99.90;;;;;;4978156;28;20196;-83
2021/09/03 09:34:24;;;;;;;0.60;0.40;;;23.80;99.90;;;;;;4977550;28;20186;-82
2021/09/03 09:36:53;;;;;;;0.60;0.60;;;24.20;99.90;;;;;;4969168;28;20192;-82
2021/09/03 09:39:20;;;;;;;0.97;0.97;;;23.80;99.90;;;;;;4970580;28;20220;-83
2021/09/03 09:41:55;;;;;;;1.23;1.13;;;23.50;99.90;;;;;;4970693;28;20192;-83
2021/09/03 09:44:30;;;;;;;1.43;0.73;;;24.00;99.90;;;;;;4968020;28;20188;-84
2021/09/03 09:47:04;;;;;;;1.50;0.77;;;24.30;99.90;;;;;;4967269;28;20200;-83
2021/09/03 09:49:29;;;;;;;1.57;1.23;;;23.50;99.90;;;;;;4970850;28;20208;-83
2021/09/03 09:51:57;;;;;;;1.30;1.30;;;23.50;99.90;;;;;;4966267;28;20207;-82
2021/09/03 09:54:24;;;;;;;1.73;0.90;;;23.20;99.90;;;;;;4979026;28;20202;-82
2021/09/03 09:57:02;;;;;;;0.83;0.80;;;22.90;99.90;;;;;;4977488;28;20196;-82
2021/09/03 09:59:30;;;;;;;1.63;0.83;;;23.20;99.90;;;;;;4972758;28;20247;-83
2021/09/03 10:01:59;;;;;;;0.80;0.77;;;23.70;99.90;;;;;;4972084;28;20196;-82
2021/09/03 10:04:27;;;;;;;0.40;0.40;;;23.60;99.90;;;;;;4973091;28;20732;-82
2021/09/03 10:06:59;;;;;;;2.80;0.80;;;23.90;99.90;;;;;;4967531;28;20184;-82
2021/09/03 10:09:27;;;;;;;0.50;0.50;;;24.00;99.90;;;;;;4965423;28;20215;-83
2021/09/03 10:11:55;;;;;;;0.60;0.60;;;24.20;99.90;;;;;;4970098;28;20196;-81
2021/09/03 10:14:26;;;;;;;2.03;0.80;;;24.30;99.90;;;;;;4959189;28;20661;-83
2021/09/03 10:16:53;;;;;;;1.00;1.00;;;24.40;99.90;;;;;;4964945;28;20676;-82
2021/09/03 10:19:27;;;;;;;0.90;0.70;;;24.10;99.90;;;;;;4970280;28;20212;-82
2021/09/03 10:22:04;;;;;;;0.80;0.80;;;24.40;99.90;;;;;;4971190;28;20627;-82
2021/09/03 10:24:30;;;;;;;1.87;1.20;;;24.50;99.90;;;;;;4971108;28;20657;-83
2021/09/03 10:26:58;;;;;;;0.67;0.67;;;24.50;99.90;;;;;;4972146;28;20188;-83
2021/09/03 10:29:29;;;;;;;0.77;0.60;;;24.60;99.90;;;;;;4968047;28;20217;-82
2021/09/03 10:32:04;;;;;;;1.17;0.77;;;24.60;99.90;;;;;;4978737;28;20228;-82
2021/09/03 10:34:50;;;;;;;0.90;0.60;;;24.40;99.90;;;;;;4968370;28;20668;-82
2021/09/03 10:37:18;;;;;;;2.50;1.20;;;24.90;99.90;;;;;;4974259;28;20196;-82
2021/09/03 10:39:46;;;;;;;1.47;1.07;;;24.80;99.90;;;;;;4975800;28;20669;-83
2021/09/03 10:42:45;;;;;;;1.13;1.03;;;24.50;99.90;;;;;;4966722;28;20216;-81
2021/09/03 10:45:22;;;;;;;0.77;0.63;;;24.30;99.90;;;;;;4967318;28;20205;-82
2021/09/03 10:47:51;;;;;;;1.37;0.83;;;24.70;99.90;;;;;;4974835;28;20214;-83
2021/09/03 10:50:21;;;;;;;0.70;0.70;;;24.60;99.90;;;;;;4974711;28;20185;-83
2021/09/03 10:53:05;;;;;;;0.80;0.80;;;24.90;99.90;;;;;;4972762;28;20271;-82
2021/09/03 10:55:58;;;;;;;1.67;1.07;;;25.10;99.90;;;;;;4976090;28;20180;-82
2021/09/03 10:58:48;;;;;;;0.90;0.87;;;24.70;99.90;;;;;;4974674;28;20599;-83
2021/09/03 11:01:20;;;;;;;2.23;0.60;;;24.60;99.90;;;;;;4967733;28;20688;-82
2021/09/03 11:04:11;;;;;;;0.70;0.70;;;25.00;99.90;;;;;;4973641;28;20227;-82
2021/09/03 11:06:39;;;;;;;0.77;0.70;;;24.40;99.90;;;;;;4972411;28;20206;-83
2021/09/03 11:09:22;;;;;;;0.70;0.70;;;24.30;99.90;;;;;;4975921;28;20200;-82
2021/09/03 11:11:53;;;;;;;0.40;0.40;;;24.90;99.90;;;;;;4967057;28;20556;-83
2021/09/03 11:14:23;;;;;;;1.13;0.97;;;25.00;99.90;;;;;;4962134;28;20189;-82
2021/09/03 11:17:05;;;;;;;1.10;0.77;;;24.90;99.90;;;;;;4974425;28;20734;-82
2021/09/03 11:19:45;;;;;;;0.70;0.70;;;25.40;99.90;;;;;;4970311;28;20212;-82
2021/09/03 11:22:19;;;;;;;1.07;0.90;;;25.30;99.90;;;;;;4974141;28;20215;-83
2021/09/03 11:24:52;;;;;;;0.80;0.80;;;25.50;99.90;;;;;;4963837;28;20173;-83
2021/09/03 11:27:20;;;;;;;0.80;0.80;;;25.70;99.90;;;;;;4975043;28;20184;-82
2021/09/03 11:29:56;;;;;;;0.97;0.80;;;25.30;99.90;;;;;;4972881;28;20188;-83
2021/09/03 11:32:34;;;;;;;0.43;0.40;;;25.60;99.90;;;;;;4974916;28;20592;-83
2021/09/03 11:35:00;;;;;;;0.40;0.40;;;26.10;99.90;;;;;;4974332;28;20187;-82
2021/09/03 11:37:47;;;;;;;0.80;0.77;;;26.40;99.90;;;;;;4972482;28;20224;-83
2021/09/03 11:40:14;;;;;;;1.07;1.07;;;26.20;99.90;;;;;;4964528;28;20684;-83
2021/09/03 11:42:52;;;;;;;1.50;1.40;;;25.70;99.90;;;;;;4975091;28;20660;-83
2021/09/03 11:45:25;;;;;;;1.47;1.00;;;25.80;99.90;;;;;;4965943;28;20177;-83
2021/09/03 11:47:53;;;;;;;0.57;0.57;;;25.70;99.90;;;;;;4963724;28;20204;-83
2021/09/03 11:50:37;;;;;;;1.10;1.10;;;25.40;99.90;;;;;;4973653;28;20192;-83
2021/09/03 11:53:06;;;;;;;0.93;0.70;;;25.70;99.90;;;;;;4962209;28;20189;-83
2021/09/03 11:55:40;;;;;;;2.00;1.37;;;25.20;99.90;;;;;;4974486;28;20941;-83
2021/09/03 11:58:11;;;;;;;0.47;0.47;;;25.40;99.90;;;;;;4972945;28;20303;-83
2021/09/03 12:00:39;;;;;;;1.03;0.93;;;25.10;99.90;;;;;;4963427;28;20184;-83
2021/09/03 12:03:14;;;;;;;0.53;0.53;;;25.00;99.90;;;;;;4972527;28;20182;-82
2021/09/03 12:05:44;;;;;;;0.83;0.80;;;24.90;99.90;;;;;;4974234;28;20676;-83
2021/09/03 12:08:16;;;;;;;2.40;0.77;;;25.00;99.90;;;;;;4972792;28;20749;-82
2021/09/03 12:10:54;;;;;;;0.53;0.53;;;25.00;99.90;;;;;;4972674;28;20192;-83
2021/09/03 12:13:23;;;;;;;1.23;0.87;;;25.40;99.90;;;;;;4971211;28;20564;-83
2021/09/03 12:16:04;;;;;;;2.23;1.13;;;25.30;99.90;;;;;;4972940;28;20243;-83
2021/09/03 12:18:33;;;;;;;0.60;0.60;;;25.30;99.90;;;;;;4973043;28;20224;-82
2021/09/03 12:21:21;;;;;;;0.57;0.57;;;25.70;99.90;;;;;;4972776;28;20190;-82
2021/09/03 12:23:59;;;;;;;1.30;0.90;;;26.10;99.90;;;;;;4974110;28;20196;-83
2021/09/03 12:26:34;;;;;;;1.27;0.93;;;26.50;99.90;;;;;;4973892;28;20176;-83
2021/09/03 12:29:00;;;;;;;0.50;0.50;;;26.10;99.90;;;;;;4969769;28;20298;-83
2021/09/03 12:31:28;;;;;;;3.30;1.40;;;25.90;99.90;;;;;;4972913;28;20304;-82
2021/09/03 12:33:58;;;;;;;0.73;0.70;;;25.90;99.90;;;;;;4973106;28;20533;-83
2021/09/03 12:36:30;;;;;;;1.17;1.00;;;25.90;99.90;;;;;;4973841;28;20176;-83
2021/09/03 12:38:58;;;;;;;0.70;0.70;;;25.60;99.90;;;;;;4972460;28;20224;-83
2021/09/03 12:41:31;;;;;;;0.60;0.47;;;25.70;99.90;;;;;;4972189;28;20208;-83
2021/09/03 12:44:08;;;;;;;1.50;0.70;;;26.00;99.90;;;;;;4973347;28;20196;-83
2021/09/03 12:46:38;;;;;;;0.43;0.43;;;26.40;99.90;;;;;;4971334;28;20208;-83
2021/09/03 12:49:10;;;;;;;0.77;0.60;;;26.40;99.90;;;;;;4969583;28;20219;-83
2021/09/03 12:51:37;;;;;;;0.57;0.50;;;26.50;99.90;;;;;;4969561;28;20220;-83